sensor_id;sensor_type;location;lat;lon;timestamp;P1;durP1;ratioP1;P2;durP2;ratioP2
17361;SDS011;8798;51.938;4.348;2024-02-16T00:02:03;4.47;;;2.10;;
17361;SDS011;8798;51.938;4.348;2024-02-16T00:04:31;5.30;;;1.90;;
17361;SDS011;8798;51.938;4.348;2024-02-16T00:07:00;4.27;;;2.20;;
17361;SDS011;8798;51.938;4.348;2024-02-16T00:09:29;5.20;;;2.00;;
17361;SDS011;8798;51.938;4.348;2024-02-16T00:11:57;5.27;;;2.33;;
17361;SDS011;8798;51.938;4.348;2024-02-16T00:14:25;5.47;;;1.63;;
17361;SDS011;8798;51.938;4.348;2024-02-16T00:16:53;4.00;;;1.80;;
17361;SDS011;8798;51.938;4.348;2024-02-16T00:19:21;4.17;;;1.80;;
17361;SDS011;8798;51.938;4.348;2024-02-16T00:21:50;3.00;;;1.87;;
17361;SDS011;8798;51.938;4.348;2024-02-16T00:24:18;4.20;;;1.97;;
17361;SDS011;8798;51.938;4.348;2024-02-16T00:26:47;5.00;;;2.20;;
17361;SDS011;8798;51.938;4.348;2024-02-16T00:29:16;4.57;;;2.43;;
17361;SDS011;8798;51.938;4.348;2024-02-16T00:31:45;3.33;;;2.10;;
17361;SDS011;8798;51.938;4.348;2024-02-16T00:34:13;3.73;;;1.87;;
17361;SDS011;8798;51.938;4.348;2024-02-16T00:36:42;4.37;;;2.20;;
17361;SDS011;8798;51.938;4.348;2024-02-16T00:39:10;3.03;;;1.80;;
17361;SDS011;8798;51.938;4.348;2024-02-16T00:41:38;4.60;;;2.00;;
17361;SDS011;8798;51.938;4.348;2024-02-16T00:44:08;6.70;;;2.27;;
17361;SDS011;8798;51.938;4.348;2024-02-16T00:46:35;3.33;;;1.90;;
17361;SDS011;8798;51.938;4.348;2024-02-16T00:49:04;3.03;;;1.70;;
17361;SDS011;8798;51.938;4.348;2024-02-16T00:51:32;3.97;;;1.90;;
17361;SDS011;8798;51.938;4.348;2024-02-16T00:54:00;5.90;;;2.10;;
17361;SDS011;8798;51.938;4.348;2024-02-16T00:56:29;3.63;;;2.00;;
17361;SDS011;8798;51.938;4.348;2024-02-16T00:58:57;4.23;;;2.27;;
17361;SDS011;8798;51.938;4.348;2024-02-16T01:01:27;3.47;;;2.43;;
17361;SDS011;8798;51.938;4.348;2024-02-16T01:03:56;5.33;;;2.10;;
17361;SDS011;8798;51.938;4.348;2024-02-16T01:06:24;8.73;;;2.23;;
17361;SDS011;8798;51.938;4.348;2024-02-16T01:08:52;5.20;;;2.20;;
17361;SDS011;8798;51.938;4.348;2024-02-16T01:11:20;4.57;;;2.23;;
17361;SDS011;8798;51.938;4.348;2024-02-16T01:13:48;3.57;;;2.10;;
17361;SDS011;8798;51.938;4.348;2024-02-16T01:16:16;6.90;;;2.00;;
17361;SDS011;8798;51.938;4.348;2024-02-16T01:18:45;4.63;;;2.20;;
17361;SDS011;8798;51.938;4.348;2024-02-16T01:21:14;5.90;;;2.00;;
17361;SDS011;8798;51.938;4.348;2024-02-16T01:23:42;2.93;;;1.90;;
17361;SDS011;8798;51.938;4.348;2024-02-16T01:26:11;4.90;;;2.20;;
17361;SDS011;8798;51.938;4.348;2024-02-16T01:28:40;4.60;;;2.17;;
17361;SDS011;8798;51.938;4.348;2024-02-16T01:31:08;4.27;;;1.90;;
17361;SDS011;8798;51.938;4.348;2024-02-16T01:33:37;4.33;;;1.90;;
17361;SDS011;8798;51.938;4.348;2024-02-16T01:36:07;5.37;;;1.93;;
17361;SDS011;8798;51.938;4.348;2024-02-16T01:38:35;5.50;;;2.30;;
17361;SDS011;8798;51.938;4.348;2024-02-16T01:41:02;4.37;;;2.43;;
17361;SDS011;8798;51.938;4.348;2024-02-16T01:43:31;3.57;;;2.10;;
17361;SDS011;8798;51.938;4.348;2024-02-16T01:45:59;5.17;;;2.13;;
17361;SDS011;8798;51.938;4.348;2024-02-16T01:48:27;6.70;;;2.30;;
17361;SDS011;8798;51.938;4.348;2024-02-16T01:50:56;5.50;;;2.20;;
17361;SDS011;8798;51.938;4.348;2024-02-16T01:53:26;4.93;;;2.40;;
17361;SDS011;8798;51.938;4.348;2024-02-16T01:55:54;7.47;;;2.33;;
17361;SDS011;8798;51.938;4.348;2024-02-16T01:58:24;3.83;;;2.30;;
17361;SDS011;8798;51.938;4.348;2024-02-16T02:00:53;4.13;;;2.10;;
17361;SDS011;8798;51.938;4.348;2024-02-16T02:03:21;3.17;;;2.10;;
17361;SDS011;8798;51.938;4.348;2024-02-16T02:05:49;3.07;;;2.20;;
17361;SDS011;8798;51.938;4.348;2024-02-16T02:08:21;5.07;;;2.40;;
17361;SDS011;8798;51.938;4.348;2024-02-16T02:10:50;5.27;;;2.43;;
17361;SDS011;8798;51.938;4.348;2024-02-16T02:13:18;5.60;;;2.37;;
17361;SDS011;8798;51.938;4.348;2024-02-16T02:15:48;6.37;;;2.23;;
17361;SDS011;8798;51.938;4.348;2024-02-16T02:18:16;5.13;;;2.27;;
17361;SDS011;8798;51.938;4.348;2024-02-16T02:20:44;4.67;;;2.37;;
17361;SDS011;8798;51.938;4.348;2024-02-16T02:23:16;4.13;;;2.27;;
17361;SDS011;8798;51.938;4.348;2024-02-16T02:25:44;5.07;;;2.27;;
17361;SDS011;8798;51.938;4.348;2024-02-16T02:28:12;3.10;;;1.93;;
17361;SDS011;8798;51.938;4.348;2024-02-16T02:30:40;3.33;;;1.90;;
17361;SDS011;8798;51.938;4.348;2024-02-16T02:33:08;5.57;;;2.40;;
17361;SDS011;8798;51.938;4.348;2024-02-16T02:35:37;4.20;;;2.10;;
17361;SDS011;8798;51.938;4.348;2024-02-16T02:38:05;4.60;;;2.27;;
17361;SDS011;8798;51.938;4.348;2024-02-16T02:40:35;5.00;;;2.20;;
17361;SDS011;8798;51.938;4.348;2024-02-16T02:43:03;4.33;;;2.30;;
17361;SDS011;8798;51.938;4.348;2024-02-16T02:45:32;4.97;;;2.50;;
17361;SDS011;8798;51.938;4.348;2024-02-16T02:48:00;4.40;;;2.07;;
17361;SDS011;8798;51.938;4.348;2024-02-16T02:50:29;5.17;;;2.20;;
17361;SDS011;8798;51.938;4.348;2024-02-16T02:52:58;4.83;;;2.40;;
17361;SDS011;8798;51.938;4.348;2024-02-16T02:55:26;4.00;;;2.20;;
17361;SDS011;8798;51.938;4.348;2024-02-16T02:57:55;5.57;;;2.70;;
17361;SDS011;8798;51.938;4.348;2024-02-16T03:00:24;4.70;;;2.50;;
17361;SDS011;8798;51.938;4.348;2024-02-16T03:02:52;3.90;;;2.63;;
17361;SDS011;8798;51.938;4.348;2024-02-16T03:05:20;5.13;;;2.53;;
17361;SDS011;8798;51.938;4.348;2024-02-16T03:07:48;3.63;;;2.23;;
17361;SDS011;8798;51.938;4.348;2024-02-16T03:10:17;5.83;;;2.70;;
17361;SDS011;8798;51.938;4.348;2024-02-16T03:12:48;6.87;;;2.33;;
17361;SDS011;8798;51.938;4.348;2024-02-16T03:15:18;5.77;;;2.57;;
17361;SDS011;8798;51.938;4.348;2024-02-16T03:17:45;3.53;;;2.10;;
17361;SDS011;8798;51.938;4.348;2024-02-16T03:20:14;4.83;;;2.47;;
17361;SDS011;8798;51.938;4.348;2024-02-16T03:22:43;4.87;;;2.30;;
17361;SDS011;8798;51.938;4.348;2024-02-16T03:25:11;6.20;;;2.30;;
17361;SDS011;8798;51.938;4.348;2024-02-16T03:27:39;8.33;;;2.37;;
17361;SDS011;8798;51.938;4.348;2024-02-16T03:30:07;4.27;;;2.63;;
17361;SDS011;8798;51.938;4.348;2024-02-16T03:32:38;7.80;;;2.50;;
17361;SDS011;8798;51.938;4.348;2024-02-16T03:35:07;3.90;;;2.37;;
17361;SDS011;8798;51.938;4.348;2024-02-16T03:37:35;5.23;;;2.20;;
17361;SDS011;8798;51.938;4.348;2024-02-16T03:40:04;5.40;;;2.50;;
17361;SDS011;8798;51.938;4.348;2024-02-16T03:42:33;4.07;;;2.27;;
17361;SDS011;8798;51.938;4.348;2024-02-16T03:45:02;3.47;;;2.10;;
17361;SDS011;8798;51.938;4.348;2024-02-16T03:47:30;5.13;;;2.53;;
17361;SDS011;8798;51.938;4.348;2024-02-16T03:49:59;7.87;;;2.77;;
17361;SDS011;8798;51.938;4.348;2024-02-16T03:52:27;5.20;;;2.83;;
17361;SDS011;8798;51.938;4.348;2024-02-16T03:54:55;7.17;;;2.70;;
17361;SDS011;8798;51.938;4.348;2024-02-16T03:57:23;5.43;;;2.30;;
17361;SDS011;8798;51.938;4.348;2024-02-16T03:59:51;5.90;;;2.87;;
17361;SDS011;8798;51.938;4.348;2024-02-16T04:02:19;6.47;;;2.63;;
17361;SDS011;8798;51.938;4.348;2024-02-16T04:04:47;5.53;;;2.40;;
17361;SDS011;8798;51.938;4.348;2024-02-16T04:07:16;4.93;;;2.77;;
17361;SDS011;8798;51.938;4.348;2024-02-16T04:09:44;6.97;;;2.90;;
17361;SDS011;8798;51.938;4.348;2024-02-16T04:12:12;4.70;;;2.60;;
17361;SDS011;8798;51.938;4.348;2024-02-16T04:14:40;7.27;;;2.97;;
17361;SDS011;8798;51.938;4.348;2024-02-16T04:17:08;7.60;;;2.80;;
17361;SDS011;8798;51.938;4.348;2024-02-16T04:19:36;5.67;;;2.37;;
17361;SDS011;8798;51.938;4.348;2024-02-16T04:22:04;6.20;;;2.97;;
17361;SDS011;8798;51.938;4.348;2024-02-16T04:24:33;4.90;;;2.70;;
17361;SDS011;8798;51.938;4.348;2024-02-16T04:27:02;5.27;;;2.67;;
17361;SDS011;8798;51.938;4.348;2024-02-16T04:29:34;6.90;;;2.57;;
17361;SDS011;8798;51.938;4.348;2024-02-16T04:32:02;3.73;;;2.13;;
17361;SDS011;8798;51.938;4.348;2024-02-16T04:34:30;9.07;;;2.87;;
17361;SDS011;8798;51.938;4.348;2024-02-16T04:36:58;5.00;;;2.27;;
17361;SDS011;8798;51.938;4.348;2024-02-16T04:39:26;6.57;;;2.40;;
17361;SDS011;8798;51.938;4.348;2024-02-16T04:41:57;4.00;;;2.30;;
17361;SDS011;8798;51.938;4.348;2024-02-16T04:44:25;5.57;;;2.67;;
17361;SDS011;8798;51.938;4.348;2024-02-16T04:46:53;6.27;;;2.60;;
17361;SDS011;8798;51.938;4.348;2024-02-16T04:49:21;5.97;;;2.63;;
17361;SDS011;8798;51.938;4.348;2024-02-16T04:51:50;8.93;;;2.90;;
17361;SDS011;8798;51.938;4.348;2024-02-16T04:54:18;7.50;;;3.10;;
17361;SDS011;8798;51.938;4.348;2024-02-16T04:56:46;4.47;;;2.50;;
17361;SDS011;8798;51.938;4.348;2024-02-16T04:59:15;5.77;;;2.37;;
17361;SDS011;8798;51.938;4.348;2024-02-16T05:01:43;6.30;;;2.53;;
17361;SDS011;8798;51.938;4.348;2024-02-16T05:04:12;7.60;;;2.97;;
17361;SDS011;8798;51.938;4.348;2024-02-16T05:06:43;4.53;;;2.60;;
17361;SDS011;8798;51.938;4.348;2024-02-16T05:09:13;4.57;;;2.70;;
17361;SDS011;8798;51.938;4.348;2024-02-16T05:11:43;4.50;;;2.57;;
17361;SDS011;8798;51.938;4.348;2024-02-16T05:14:12;5.37;;;2.87;;
17361;SDS011;8798;51.938;4.348;2024-02-16T05:16:43;4.13;;;2.80;;
17361;SDS011;8798;51.938;4.348;2024-02-16T05:19:12;4.57;;;2.40;;
17361;SDS011;8798;51.938;4.348;2024-02-16T05:21:40;4.83;;;2.60;;
17361;SDS011;8798;51.938;4.348;2024-02-16T05:24:08;6.23;;;3.10;;
17361;SDS011;8798;51.938;4.348;2024-02-16T05:26:36;5.73;;;2.90;;
17361;SDS011;8798;51.938;4.348;2024-02-16T05:29:04;7.57;;;2.90;;
17361;SDS011;8798;51.938;4.348;2024-02-16T05:31:32;6.00;;;2.67;;
17361;SDS011;8798;51.938;4.348;2024-02-16T05:34:01;6.53;;;3.00;;
17361;SDS011;8798;51.938;4.348;2024-02-16T05:36:29;4.57;;;2.63;;
17361;SDS011;8798;51.938;4.348;2024-02-16T05:39:02;4.10;;;2.80;;
17361;SDS011;8798;51.938;4.348;2024-02-16T05:41:46;4.80;;;2.63;;
17361;SDS011;8798;51.938;4.348;2024-02-16T05:44:14;4.23;;;2.73;;
17361;SDS011;8798;51.938;4.348;2024-02-16T05:46:44;4.87;;;2.77;;
17361;SDS011;8798;51.938;4.348;2024-02-16T05:49:13;6.60;;;2.93;;
17361;SDS011;8798;51.938;4.348;2024-02-16T05:51:42;3.63;;;2.40;;
17361;SDS011;8798;51.938;4.348;2024-02-16T05:54:27;10.27;;;3.00;;
17361;SDS011;8798;51.938;4.348;2024-02-16T05:56:55;6.27;;;3.10;;
17361;SDS011;8798;51.938;4.348;2024-02-16T05:59:23;4.93;;;3.10;;
17361;SDS011;8798;51.938;4.348;2024-02-16T06:01:53;6.10;;;2.83;;
17361;SDS011;8798;51.938;4.348;2024-02-16T06:04:22;3.67;;;2.83;;
17361;SDS011;8798;51.938;4.348;2024-02-16T06:06:50;5.60;;;3.00;;
17361;SDS011;8798;51.938;4.348;2024-02-16T06:09:20;5.97;;;2.93;;
17361;SDS011;8798;51.938;4.348;2024-02-16T06:11:48;4.90;;;2.87;;
17361;SDS011;8798;51.938;4.348;2024-02-16T06:14:16;4.63;;;2.60;;
17361;SDS011;8798;51.938;4.348;2024-02-16T06:16:45;6.53;;;2.60;;
17361;SDS011;8798;51.938;4.348;2024-02-16T06:19:14;4.87;;;3.17;;
17361;SDS011;8798;51.938;4.348;2024-02-16T06:21:43;4.53;;;2.90;;
17361;SDS011;8798;51.938;4.348;2024-02-16T06:24:11;4.63;;;2.80;;
17361;SDS011;8798;51.938;4.348;2024-02-16T06:26:39;5.77;;;3.20;;
17361;SDS011;8798;51.938;4.348;2024-02-16T06:29:07;4.67;;;2.90;;
17361;SDS011;8798;51.938;4.348;2024-02-16T06:31:35;4.17;;;2.87;;
17361;SDS011;8798;51.938;4.348;2024-02-16T06:34:03;4.37;;;2.50;;
17361;SDS011;8798;51.938;4.348;2024-02-16T06:36:31;5.47;;;2.73;;
17361;SDS011;8798;51.938;4.348;2024-02-16T06:39:01;7.00;;;3.13;;
17361;SDS011;8798;51.938;4.348;2024-02-16T06:41:29;4.83;;;2.67;;
17361;SDS011;8798;51.938;4.348;2024-02-16T06:43:57;3.70;;;2.57;;
17361;SDS011;8798;51.938;4.348;2024-02-16T06:46:25;4.43;;;2.90;;
17361;SDS011;8798;51.938;4.348;2024-02-16T06:48:55;4.53;;;2.90;;
17361;SDS011;8798;51.938;4.348;2024-02-16T06:51:23;6.53;;;3.00;;
17361;SDS011;8798;51.938;4.348;2024-02-16T06:53:53;5.00;;;3.23;;
17361;SDS011;8798;51.938;4.348;2024-02-16T06:56:22;7.30;;;3.33;;
17361;SDS011;8798;51.938;4.348;2024-02-16T06:58:50;4.90;;;3.10;;
17361;SDS011;8798;51.938;4.348;2024-02-16T07:01:18;7.63;;;2.60;;
17361;SDS011;8798;51.938;4.348;2024-02-16T07:03:46;4.23;;;2.77;;
17361;SDS011;8798;51.938;4.348;2024-02-16T07:06:14;6.20;;;2.83;;
17361;SDS011;8798;51.938;4.348;2024-02-16T07:08:44;4.80;;;2.70;;
17361;SDS011;8798;51.938;4.348;2024-02-16T07:11:12;3.57;;;2.60;;
17361;SDS011;8798;51.938;4.348;2024-02-16T07:13:40;5.63;;;2.70;;
17361;SDS011;8798;51.938;4.348;2024-02-16T07:16:09;5.13;;;2.63;;
17361;SDS011;8798;51.938;4.348;2024-02-16T07:18:37;5.93;;;2.90;;
17361;SDS011;8798;51.938;4.348;2024-02-16T07:21:05;5.27;;;3.20;;
17361;SDS011;8798;51.938;4.348;2024-02-16T07:23:35;6.07;;;3.00;;
17361;SDS011;8798;51.938;4.348;2024-02-16T07:26:03;4.90;;;2.90;;
17361;SDS011;8798;51.938;4.348;2024-02-16T07:28:33;7.67;;;3.20;;
17361;SDS011;8798;51.938;4.348;2024-02-16T07:31:03;5.73;;;3.10;;
17361;SDS011;8798;51.938;4.348;2024-02-16T07:33:31;6.20;;;3.17;;
17361;SDS011;8798;51.938;4.348;2024-02-16T07:35:59;4.83;;;2.80;;
17361;SDS011;8798;51.938;4.348;2024-02-16T07:38:27;4.37;;;2.90;;
17361;SDS011;8798;51.938;4.348;2024-02-16T07:40:55;5.70;;;3.10;;
17361;SDS011;8798;51.938;4.348;2024-02-16T07:43:23;6.83;;;3.37;;
17361;SDS011;8798;51.938;4.348;2024-02-16T07:45:51;4.07;;;2.80;;
17361;SDS011;8798;51.938;4.348;2024-02-16T07:48:22;4.40;;;2.90;;
17361;SDS011;8798;51.938;4.348;2024-02-16T07:50:50;5.70;;;3.00;;
17361;SDS011;8798;51.938;4.348;2024-02-16T07:53:18;4.23;;;2.80;;
17361;SDS011;8798;51.938;4.348;2024-02-16T07:55:46;5.23;;;3.17;;
17361;SDS011;8798;51.938;4.348;2024-02-16T07:58:14;6.70;;;2.70;;
17361;SDS011;8798;51.938;4.348;2024-02-16T08:00:42;5.67;;;2.90;;
17361;SDS011;8798;51.938;4.348;2024-02-16T08:03:11;6.83;;;2.47;;
17361;SDS011;8798;51.938;4.348;2024-02-16T08:05:40;4.70;;;2.83;;
17361;SDS011;8798;51.938;4.348;2024-02-16T08:08:08;4.63;;;2.90;;
17361;SDS011;8798;51.938;4.348;2024-02-16T08:10:36;5.80;;;3.20;;
17361;SDS011;8798;51.938;4.348;2024-02-16T08:13:04;7.30;;;2.90;;
17361;SDS011;8798;51.938;4.348;2024-02-16T08:15:32;4.67;;;2.80;;
17361;SDS011;8798;51.938;4.348;2024-02-16T08:18:00;5.13;;;3.20;;
17361;SDS011;8798;51.938;4.348;2024-02-16T08:20:29;7.77;;;3.00;;
17361;SDS011;8798;51.938;4.348;2024-02-16T08:22:59;5.40;;;2.97;;
17361;SDS011;8798;51.938;4.348;2024-02-16T08:25:27;6.90;;;3.30;;
17361;SDS011;8798;51.938;4.348;2024-02-16T08:27:56;10.00;;;3.60;;
17361;SDS011;8798;51.938;4.348;2024-02-16T08:30:24;7.13;;;3.10;;
17361;SDS011;8798;51.938;4.348;2024-02-16T08:32:53;6.33;;;3.60;;
17361;SDS011;8798;51.938;4.348;2024-02-16T08:35:21;4.97;;;3.07;;
17361;SDS011;8798;51.938;4.348;2024-02-16T08:37:49;6.47;;;2.90;;
17361;SDS011;8798;51.938;4.348;2024-02-16T08:40:19;5.70;;;2.97;;
17361;SDS011;8798;51.938;4.348;2024-02-16T08:42:47;6.80;;;3.23;;
17361;SDS011;8798;51.938;4.348;2024-02-16T08:45:15;4.50;;;3.30;;
17361;SDS011;8798;51.938;4.348;2024-02-16T08:47:44;6.03;;;2.77;;
17361;SDS011;8798;51.938;4.348;2024-02-16T08:50:17;3.63;;;2.87;;
17361;SDS011;8798;51.938;4.348;2024-02-16T08:52:46;4.73;;;3.10;;
17361;SDS011;8798;51.938;4.348;2024-02-16T08:55:14;7.37;;;3.00;;
17361;SDS011;8798;51.938;4.348;2024-02-16T08:57:44;4.57;;;2.97;;
17361;SDS011;8798;51.938;4.348;2024-02-16T09:00:13;4.97;;;3.23;;
17361;SDS011;8798;51.938;4.348;2024-02-16T09:02:42;6.30;;;2.90;;
17361;SDS011;8798;51.938;4.348;2024-02-16T09:05:11;5.33;;;3.27;;
17361;SDS011;8798;51.938;4.348;2024-02-16T09:07:40;7.63;;;3.57;;
17361;SDS011;8798;51.938;4.348;2024-02-16T09:10:08;7.63;;;3.10;;
17361;SDS011;8798;51.938;4.348;2024-02-16T09:12:35;6.07;;;3.20;;
17361;SDS011;8798;51.938;4.348;2024-02-16T09:15:05;7.07;;;3.50;;
17361;SDS011;8798;51.938;4.348;2024-02-16T09:17:35;9.03;;;3.40;;
17361;SDS011;8798;51.938;4.348;2024-02-16T09:20:03;6.87;;;3.40;;
17361;SDS011;8798;51.938;4.348;2024-02-16T09:22:35;6.73;;;2.97;;
17361;SDS011;8798;51.938;4.348;2024-02-16T09:25:04;8.33;;;3.70;;
17361;SDS011;8798;51.938;4.348;2024-02-16T09:27:32;7.60;;;3.10;;
17361;SDS011;8798;51.938;4.348;2024-02-16T09:30:00;9.63;;;3.30;;
17361;SDS011;8798;51.938;4.348;2024-02-16T09:32:31;7.77;;;4.00;;
17361;SDS011;8798;51.938;4.348;2024-02-16T09:34:59;9.30;;;5.00;;
17361;SDS011;8798;51.938;4.348;2024-02-16T09:37:27;12.37;;;4.80;;
17361;SDS011;8798;51.938;4.348;2024-02-16T09:39:55;16.37;;;5.37;;
17361;SDS011;8798;51.938;4.348;2024-02-16T09:42:23;14.23;;;4.90;;
17361;SDS011;8798;51.938;4.348;2024-02-16T09:44:53;12.27;;;5.27;;
17361;SDS011;8798;51.938;4.348;2024-02-16T09:47:22;14.70;;;5.63;;
17361;SDS011;8798;51.938;4.348;2024-02-16T09:49:57;13.13;;;5.83;;
17361;SDS011;8798;51.938;4.348;2024-02-16T09:52:25;15.80;;;6.20;;
17361;SDS011;8798;51.938;4.348;2024-02-16T09:54:53;13.40;;;5.67;;
17361;SDS011;8798;51.938;4.348;2024-02-16T09:57:21;14.87;;;6.13;;
17361;SDS011;8798;51.938;4.348;2024-02-16T09:59:48;17.40;;;5.97;;
17361;SDS011;8798;51.938;4.348;2024-02-16T10:02:17;11.57;;;5.57;;
17361;SDS011;8798;51.938;4.348;2024-02-16T10:04:45;17.27;;;6.03;;
17361;SDS011;8798;51.938;4.348;2024-02-16T10:07:14;11.47;;;6.03;;
17361;SDS011;8798;51.938;4.348;2024-02-16T10:09:43;12.60;;;5.60;;
17361;SDS011;8798;51.938;4.348;2024-02-16T10:12:17;12.20;;;4.93;;
17361;SDS011;8798;51.938;4.348;2024-02-16T10:14:53;10.63;;;5.13;;
17361;SDS011;8798;51.938;4.348;2024-02-16T10:17:22;12.17;;;4.70;;
17361;SDS011;8798;51.938;4.348;2024-02-16T10:19:55;10.00;;;4.50;;
17361;SDS011;8798;51.938;4.348;2024-02-16T10:22:25;7.80;;;4.43;;
17361;SDS011;8798;51.938;4.348;2024-02-16T10:24:53;8.13;;;4.70;;
17361;SDS011;8798;51.938;4.348;2024-02-16T10:27:21;10.40;;;4.50;;
17361;SDS011;8798;51.938;4.348;2024-02-16T10:29:49;8.97;;;3.80;;
17361;SDS011;8798;51.938;4.348;2024-02-16T10:32:21;7.57;;;4.00;;
17361;SDS011;8798;51.938;4.348;2024-02-16T10:34:49;8.60;;;3.60;;
17361;SDS011;8798;51.938;4.348;2024-02-16T10:37:20;9.10;;;3.80;;
17361;SDS011;8798;51.938;4.348;2024-02-16T10:39:49;8.67;;;4.13;;
17361;SDS011;8798;51.938;4.348;2024-02-16T10:42:23;7.43;;;4.03;;
17361;SDS011;8798;51.938;4.348;2024-02-16T10:44:53;13.23;;;4.87;;
17361;SDS011;8798;51.938;4.348;2024-02-16T10:47:21;8.30;;;4.20;;
17361;SDS011;8798;51.938;4.348;2024-02-16T10:49:49;7.47;;;4.17;;
17361;SDS011;8798;51.938;4.348;2024-02-16T10:52:18;10.07;;;4.87;;
17361;SDS011;8798;51.938;4.348;2024-02-16T10:54:46;8.23;;;4.73;;
17361;SDS011;8798;51.938;4.348;2024-02-16T10:57:16;10.87;;;4.87;;
17361;SDS011;8798;51.938;4.348;2024-02-16T10:59:44;8.03;;;4.57;;
17361;SDS011;8798;51.938;4.348;2024-02-16T11:02:14;9.23;;;4.33;;
17361;SDS011;8798;51.938;4.348;2024-02-16T11:04:45;7.70;;;4.63;;
17361;SDS011;8798;51.938;4.348;2024-02-16T11:07:16;8.67;;;4.40;;
17361;SDS011;8798;51.938;4.348;2024-02-16T11:09:46;7.97;;;3.90;;
17361;SDS011;8798;51.938;4.348;2024-02-16T11:12:16;8.50;;;3.60;;
17361;SDS011;8798;51.938;4.348;2024-02-16T11:14:45;6.00;;;3.43;;
17361;SDS011;8798;51.938;4.348;2024-02-16T11:17:15;4.13;;;2.90;;
17361;SDS011;8798;51.938;4.348;2024-02-16T11:19:47;5.63;;;2.63;;
17361;SDS011;8798;51.938;4.348;2024-02-16T11:22:16;3.37;;;2.37;;
17361;SDS011;8798;51.938;4.348;2024-02-16T11:24:47;3.27;;;2.30;;
17361;SDS011;8798;51.938;4.348;2024-02-16T11:27:18;2.93;;;2.17;;
17361;SDS011;8798;51.938;4.348;2024-02-16T11:29:47;4.40;;;2.67;;
17361;SDS011;8798;51.938;4.348;2024-02-16T11:32:18;6.33;;;2.53;;
17361;SDS011;8798;51.938;4.348;2024-02-16T11:34:47;5.37;;;2.53;;
17361;SDS011;8798;51.938;4.348;2024-02-16T11:37:15;4.23;;;2.63;;
17361;SDS011;8798;51.938;4.348;2024-02-16T11:39:44;4.47;;;2.70;;
17361;SDS011;8798;51.938;4.348;2024-02-16T11:42:14;3.40;;;2.20;;
17361;SDS011;8798;51.938;4.348;2024-02-16T11:44:50;3.33;;;2.10;;
17361;SDS011;8798;51.938;4.348;2024-02-16T11:47:20;3.27;;;1.90;;
17361;SDS011;8798;51.938;4.348;2024-02-16T11:50:00;7.87;;;1.93;;
17361;SDS011;8798;51.938;4.348;2024-02-16T11:52:30;4.23;;;2.00;;
17361;SDS011;8798;51.938;4.348;2024-02-16T11:54:58;2.70;;;1.70;;
17361;SDS011;8798;51.938;4.348;2024-02-16T11:57:29;2.97;;;2.00;;
17361;SDS011;8798;51.938;4.348;2024-02-16T11:59:58;4.40;;;2.23;;
17361;SDS011;8798;51.938;4.348;2024-02-16T12:02:26;4.43;;;2.33;;
17361;SDS011;8798;51.938;4.348;2024-02-16T12:04:57;4.40;;;2.30;;
17361;SDS011;8798;51.938;4.348;2024-02-16T12:07:29;3.17;;;2.00;;
17361;SDS011;8798;51.938;4.348;2024-02-16T12:10:00;3.03;;;2.27;;
17361;SDS011;8798;51.938;4.348;2024-02-16T12:12:33;4.17;;;2.50;;
17361;SDS011;8798;51.938;4.348;2024-02-16T12:15:01;4.20;;;2.47;;
17361;SDS011;8798;51.938;4.348;2024-02-16T12:17:32;6.97;;;3.47;;
17361;SDS011;8798;51.938;4.348;2024-02-16T12:20:01;7.47;;;3.47;;
17361;SDS011;8798;51.938;4.348;2024-02-16T12:22:29;4.43;;;2.87;;
17361;SDS011;8798;51.938;4.348;2024-02-16T12:24:57;4.97;;;3.03;;
17361;SDS011;8798;51.938;4.348;2024-02-16T12:27:29;3.70;;;2.77;;
17361;SDS011;8798;51.938;4.348;2024-02-16T12:29:58;6.63;;;3.70;;
17361;SDS011;8798;51.938;4.348;2024-02-16T12:32:26;5.77;;;3.23;;
17361;SDS011;8798;51.938;4.348;2024-02-16T12:34:54;6.57;;;3.37;;
17361;SDS011;8798;51.938;4.348;2024-02-16T12:37:24;5.00;;;3.20;;
17361;SDS011;8798;51.938;4.348;2024-02-16T12:39:52;8.87;;;4.03;;
17361;SDS011;8798;51.938;4.348;2024-02-16T12:42:20;7.77;;;3.90;;
17361;SDS011;8798;51.938;4.348;2024-02-16T12:44:48;6.33;;;3.20;;
17361;SDS011;8798;51.938;4.348;2024-02-16T12:47:18;5.07;;;3.57;;
17361;SDS011;8798;51.938;4.348;2024-02-16T12:49:46;5.83;;;3.43;;
17361;SDS011;8798;51.938;4.348;2024-02-16T12:52:19;6.03;;;3.30;;
17361;SDS011;8798;51.938;4.348;2024-02-16T12:54:48;4.30;;;2.97;;
17361;SDS011;8798;51.938;4.348;2024-02-16T12:57:16;4.80;;;3.10;;
17361;SDS011;8798;51.938;4.348;2024-02-16T12:59:44;5.90;;;2.97;;
17361;SDS011;8798;51.938;4.348;2024-02-16T13:02:12;5.50;;;2.90;;
17361;SDS011;8798;51.938;4.348;2024-02-16T13:04:42;3.73;;;2.13;;
17361;SDS011;8798;51.938;4.348;2024-02-16T13:07:10;6.07;;;2.67;;
17361;SDS011;8798;51.938;4.348;2024-02-16T13:09:38;4.00;;;2.50;;
17361;SDS011;8798;51.938;4.348;2024-02-16T13:12:08;5.73;;;2.67;;
17361;SDS011;8798;51.938;4.348;2024-02-16T13:14:36;3.20;;;2.33;;
17361;SDS011;8798;51.938;4.348;2024-02-16T13:17:04;3.60;;;2.63;;
17361;SDS011;8798;51.938;4.348;2024-02-16T13:19:32;3.53;;;2.53;;
17361;SDS011;8798;51.938;4.348;2024-02-16T13:22:02;3.57;;;2.20;;
17361;SDS011;8798;51.938;4.348;2024-02-16T13:24:30;4.80;;;2.80;;
17361;SDS011;8798;51.938;4.348;2024-02-16T13:26:58;6.17;;;2.90;;
17361;SDS011;8798;51.938;4.348;2024-02-16T13:29:26;5.03;;;2.63;;
17361;SDS011;8798;51.938;4.348;2024-02-16T13:31:54;4.57;;;2.70;;
17361;SDS011;8798;51.938;4.348;2024-02-16T13:34:22;5.30;;;2.73;;
17361;SDS011;8798;51.938;4.348;2024-02-16T13:36:51;6.37;;;3.10;;
17361;SDS011;8798;51.938;4.348;2024-02-16T13:39:20;3.97;;;2.43;;
17361;SDS011;8798;51.938;4.348;2024-02-16T13:41:49;4.67;;;2.33;;
17361;SDS011;8798;51.938;4.348;2024-02-16T13:44:17;4.83;;;2.80;;
17361;SDS011;8798;51.938;4.348;2024-02-16T13:46:46;8.17;;;2.83;;
17361;SDS011;8798;51.938;4.348;2024-02-16T13:49:14;4.73;;;2.80;;
17361;SDS011;8798;51.938;4.348;2024-02-16T13:51:42;9.03;;;3.27;;
17361;SDS011;8798;51.938;4.348;2024-02-16T13:54:12;5.73;;;2.93;;
17361;SDS011;8798;51.938;4.348;2024-02-16T13:56:41;5.73;;;2.67;;
17361;SDS011;8798;51.938;4.348;2024-02-16T13:59:09;6.27;;;3.13;;
17361;SDS011;8798;51.938;4.348;2024-02-16T14:01:37;3.93;;;3.17;;
17361;SDS011;8798;51.938;4.348;2024-02-16T14:04:05;6.27;;;2.97;;
17361;SDS011;8798;51.938;4.348;2024-02-16T14:06:33;4.80;;;2.97;;
17361;SDS011;8798;51.938;4.348;2024-02-16T14:09:02;7.70;;;3.23;;
17361;SDS011;8798;51.938;4.348;2024-02-16T14:11:50;6.73;;;2.57;;
17361;SDS011;8798;51.938;4.348;2024-02-16T14:14:20;5.83;;;2.80;;
17361;SDS011;8798;51.938;4.348;2024-02-16T14:17:02;4.63;;;2.43;;
17361;SDS011;8798;51.938;4.348;2024-02-16T14:19:30;4.00;;;2.60;;
17361;SDS011;8798;51.938;4.348;2024-02-16T14:22:00;3.47;;;2.10;;
17361;SDS011;8798;51.938;4.348;2024-02-16T14:24:29;5.60;;;2.33;;
17361;SDS011;8798;51.938;4.348;2024-02-16T14:26:59;2.53;;;2.07;;
17361;SDS011;8798;51.938;4.348;2024-02-16T14:29:27;7.37;;;2.57;;
17361;SDS011;8798;51.938;4.348;2024-02-16T14:31:55;7.07;;;2.50;;
17361;SDS011;8798;51.938;4.348;2024-02-16T14:34:23;4.40;;;2.07;;
17361;SDS011;8798;51.938;4.348;2024-02-16T14:36:52;4.50;;;2.43;;
17361;SDS011;8798;51.938;4.348;2024-02-16T14:39:20;3.93;;;2.13;;
17361;SDS011;8798;51.938;4.348;2024-02-16T14:41:48;4.97;;;2.13;;
17361;SDS011;8798;51.938;4.348;2024-02-16T14:44:17;3.60;;;2.10;;
17361;SDS011;8798;51.938;4.348;2024-02-16T14:46:45;6.93;;;2.50;;
17361;SDS011;8798;51.938;4.348;2024-02-16T14:49:14;5.07;;;2.30;;
17361;SDS011;8798;51.938;4.348;2024-02-16T14:51:47;4.17;;;2.57;;
17361;SDS011;8798;51.938;4.348;2024-02-16T14:54:15;5.90;;;2.00;;
17361;SDS011;8798;51.938;4.348;2024-02-16T14:56:43;6.23;;;2.57;;
17361;SDS011;8798;51.938;4.348;2024-02-16T14:59:11;8.27;;;2.50;;
17361;SDS011;8798;51.938;4.348;2024-02-16T15:01:41;6.57;;;2.47;;
17361;SDS011;8798;51.938;4.348;2024-02-16T15:04:10;5.43;;;2.30;;
17361;SDS011;8798;51.938;4.348;2024-02-16T15:06:38;3.73;;;2.03;;
17361;SDS011;8798;51.938;4.348;2024-02-16T15:09:06;4.97;;;2.13;;
17361;SDS011;8798;51.938;4.348;2024-02-16T15:11:36;4.33;;;1.87;;